EET,Max TemperatureF,Mean TemperatureF,Min TemperatureF,Max Dew PointF,MeanDew PointF,Min DewpointF,Max Humidity, Mean Humidity, Min Humidity, Max Sea Level PressureIn, Mean Sea Level PressureIn, Min Sea Level PressureIn, Max VisibilityMiles, Mean VisibilityMiles, Min VisibilityMiles, Max Wind SpeedMPH, Mean Wind SpeedMPH, Max Gust SpeedMPH,PrecipitationIn, CloudCover, Events, WindDirDegrees
2013-1-1,51,44,37,43,36,32,87,70,54,30.18,30.16,30.15,6,6,6,7,4,,0.00,1,,65
2013-1-2,53,45,37,43,40,36,93,83,67,30.27,30.22,30.18,6,6,6,7,3,,0.00,3,,101
2013-1-3,55,44,32,46,40,27,100,84,63,30.42,30.39,30.36,6,6,6,6,1,,0.00,1,,180
2013-1-4,51,42,33,43,36,28,93,76,58,30.24,30.14,30.06,6,6,6,6,4,,0.00,3,,55
2013-1-5,53,42,32,39,35,30,93,71,50,29.98,29.88,29.77,6,6,6,6,1,,0.00,5,,77
2013-1-6,48,40,33,36,32,28,93,65,50,29.92,29.89,29.83,6,6,6,14,5,,0.00,3,,89
2013-1-7,44,38,32,34,27,23,93,65,46,30.04,29.91,29.83,6,6,3,18,3,,0.00,5,,51
2013-1-8,39,31,23,23,18,12,93,59,36,30.24,30.20,30.18,6,6,6,7,3,,0.00,1,,62
2013-1-9,39,31,23,30,20,16,100,63,41,30.24,30.20,30.15,6,6,6,8,3,,0.00,2,,51
2013-1-10,44,35,26,32,28,19,87,72,57,30.18,30.09,30.01,6,6,6,9,4,,0.00,4,,335
2013-1-11,50,42,35,45,39,32,93,87,76,29.98,29.85,29.77,6,6,6,8,2,,0.00,5,Rain,106
2013-1-12,50,42,35,48,41,34,100,91,76,30.06,29.86,29.80,6,6,1,10,4,,0.00,6,Rain,67
2013-1-13,48,42,35,39,36,30,93,80,58,30.27,30.20,30.06,6,6,6,12,8,,0.00,5,,53
2013-1-14,46,40,35,43,39,32,93,87,76,30.33,30.29,30.27,6,5,3,9,5,,0.00,6,Rain,60
2013-1-15,57,50,42,52,47,41,100,88,77,30.27,30.15,30.01,6,6,6,8,6,,0.00,5,,38
2013-1-16,57,50,44,52,50,43,100,86,77,29.98,29.73,29.56,6,6,5,29,10,40,0.00,5,Rain,170
2013-1-17,55,50,44,46,42,39,100,74,54,29.71,29.65,29.53,6,6,6,12,7,,0.00,5,Rain,302
2013-1-18,57,52,48,54,49,41,100,88,71,29.59,29.42,29.33,6,6,4,24,13,38,0.00,7,Rain-Thunderstorm,206
2013-1-19,53,45,37,45,39,36,93,75,58,29.77,29.57,29.39,6,6,6,16,8,,0.00,3,,258
2013-1-20,55,47,39,46,41,34,93,76,58,29.89,29.85,29.77,6,6,6,6,3,,0.00,5,,339
2013-1-21,64,54,44,54,48,41,93,78,59,29.86,29.77,29.62,6,6,6,17,8,29,0.00,5,Rain,114
2013-1-22,59,54,50,50,48,46,94,78,63,29.68,29.65,29.56,6,6,6,14,7,,0.00,3,,246
2013-1-23,60,52,44,46,40,36,93,67,39,29.92,29.80,29.68,6,6,6,17,5,,0.00,2,,246
2013-1-24,57,48,39,54,44,32,100,84,70,29.89,29.70,29.53,6,6,3,23,9,37,0.00,6,Rain-Thunderstorm,97
2013-1-25,55,47,39,48,45,37,93,85,67,29.62,29.56,29.53,6,6,6,17,3,,0.00,5,Rain,65
2013-1-26,48,44,39,45,38,30,100,86,70,29.77,29.61,29.47,6,6,6,21,15,,0.00,8,Rain,63
2013-1-27,42,40,37,36,32,28,87,74,65,29.98,29.90,29.77,6,6,6,15,9,,0.00,6,,77
2013-1-28,48,42,37,39,36,32,87,82,71,30.06,29.97,29.92,6,6,6,10,7,,0.00,6,,57
2013-1-29,44,38,33,36,33,30,87,78,65,30.15,30.11,30.06,6,6,6,12,7,,0.00,4,,62
2013-1-30,48,42,35,41,36,32,93,82,58,30.12,30.03,29.98,6,6,6,7,4,,0.00,5,,66
2013-1-31,48,42,37,45,40,34,100,87,66,30.01,29.92,29.86,6,5,0,10,3,,0.00,5,Fog-Rain,337